sensor_id;sensor_type;location;lat;lon;timestamp;P1;durP1;ratioP1;P2;durP2;ratioP2
51806;SDS011;37865;51.304;9.536;2022-07-23T01:51:58;16.55;;;10.68;;
51806;SDS011;37865;51.304;9.536;2022-07-23T01:54:31;16.90;;;12.02;;
51806;SDS011;37865;51.304;9.536;2022-07-23T01:56:58;18.88;;;11.45;;
51806;SDS011;37865;51.304;9.536;2022-07-23T01:59:24;17.08;;;11.80;;
51806;SDS011;37865;51.304;9.536;2022-07-23T02:01:49;19.80;;;10.95;;
51806;SDS011;37865;51.304;9.536;2022-07-23T02:04:16;16.88;;;12.07;;
51806;SDS011;37865;51.304;9.536;2022-07-23T02:06:42;17.13;;;11.70;;
51806;SDS011;37865;51.304;9.536;2022-07-23T02:09:07;23.25;;;13.57;;
51806;SDS011;37865;51.304;9.536;2022-07-23T02:11:33;16.50;;;12.32;;
51806;SDS011;37865;51.304;9.536;2022-07-23T02:13:58;18.90;;;12.73;;
51806;SDS011;37865;51.304;9.536;2022-07-23T02:16:24;18.45;;;15.05;;
51806;SDS011;37865;51.304;9.536;2022-07-23T02:18:49;24.23;;;14.27;;
51806;SDS011;37865;51.304;9.536;2022-07-23T02:21:14;24.27;;;16.00;;
51806;SDS011;37865;51.304;9.536;2022-07-23T02:23:40;17.08;;;13.50;;
51806;SDS011;37865;51.304;9.536;2022-07-23T02:26:05;22.42;;;14.65;;
51806;SDS011;37865;51.304;9.536;2022-07-23T02:28:30;24.83;;;14.85;;
51806;SDS011;37865;51.304;9.536;2022-07-23T02:30:56;22.27;;;16.02;;
51806;SDS011;37865;51.304;9.536;2022-07-23T02:33:21;19.38;;;15.35;;
51806;SDS011;37865;51.304;9.536;2022-07-23T02:35:47;24.08;;;16.00;;
51806;SDS011;37865;51.304;9.536;2022-07-23T02:38:12;20.52;;;15.98;;
51806;SDS011;37865;51.304;9.536;2022-07-23T02:40:38;23.35;;;15.27;;
51806;SDS011;37865;51.304;9.536;2022-07-23T02:43:03;25.13;;;16.67;;
51806;SDS011;37865;51.304;9.536;2022-07-23T02:45:29;24.67;;;16.65;;
51806;SDS011;37865;51.304;9.536;2022-07-23T02:47:54;31.35;;;16.27;;
51806;SDS011;37865;51.304;9.536;2022-07-23T02:50:19;24.90;;;15.27;;
51806;SDS011;37865;51.304;9.536;2022-07-23T02:52:45;21.70;;;15.20;;
51806;SDS011;37865;51.304;9.536;2022-07-23T02:55:10;25.60;;;15.80;;
51806;SDS011;37865;51.304;9.536;2022-07-23T02:57:36;20.58;;;13.95;;
51806;SDS011;37865;51.304;9.536;2022-07-23T03:00:03;19.05;;;14.40;;
51806;SDS011;37865;51.304;9.536;2022-07-23T03:02:29;22.67;;;15.77;;
51806;SDS011;37865;51.304;9.536;2022-07-23T03:04:55;30.33;;;16.23;;
51806;SDS011;37865;51.304;9.536;2022-07-23T03:07:20;24.17;;;14.57;;
51806;SDS011;37865;51.304;9.536;2022-07-23T03:09:45;27.83;;;17.05;;
51806;SDS011;37865;51.304;9.536;2022-07-23T03:12:11;20.10;;;14.13;;
51806;SDS011;37865;51.304;9.536;2022-07-23T03:14:37;23.10;;;14.90;;
51806;SDS011;37865;51.304;9.536;2022-07-23T03:17:02;21.85;;;15.35;;
51806;SDS011;37865;51.304;9.536;2022-07-23T03:19:27;22.35;;;15.10;;
51806;SDS011;37865;51.304;9.536;2022-07-23T03:21:53;23.45;;;15.73;;
51806;SDS011;37865;51.304;9.536;2022-07-23T03:24:18;18.33;;;14.35;;
51806;SDS011;37865;51.304;9.536;2022-07-23T03:26:44;20.83;;;13.32;;
51806;SDS011;37865;51.304;9.536;2022-07-23T03:29:09;20.40;;;14.35;;
51806;SDS011;37865;51.304;9.536;2022-07-23T03:31:35;28.20;;;15.80;;
51806;SDS011;37865;51.304;9.536;2022-07-23T03:34:00;21.67;;;15.98;;
51806;SDS011;37865;51.304;9.536;2022-07-23T03:36:26;27.70;;;15.10;;
51806;SDS011;37865;51.304;9.536;2022-07-23T03:38:52;21.58;;;14.00;;
51806;SDS011;37865;51.304;9.536;2022-07-23T03:41:18;22.30;;;15.07;;
51806;SDS011;37865;51.304;9.536;2022-07-23T03:43:44;19.20;;;12.85;;
51806;SDS011;37865;51.304;9.536;2022-07-23T03:46:09;32.03;;;14.60;;
51806;SDS011;37865;51.304;9.536;2022-07-23T03:48:35;28.10;;;15.70;;
51806;SDS011;37865;51.304;9.536;2022-07-23T03:51:00;16.35;;;13.45;;
51806;SDS011;37865;51.304;9.536;2022-07-23T03:53:26;16.98;;;12.98;;
51806;SDS011;37865;51.304;9.536;2022-07-23T03:55:51;23.10;;;14.60;;
51806;SDS011;37865;51.304;9.536;2022-07-23T03:58:17;26.05;;;13.85;;
51806;SDS011;37865;51.304;9.536;2022-07-23T04:00:42;19.83;;;13.75;;
51806;SDS011;37865;51.304;9.536;2022-07-23T04:03:07;18.85;;;14.23;;
51806;SDS011;37865;51.304;9.536;2022-07-23T04:05:33;23.85;;;11.80;;
51806;SDS011;37865;51.304;9.536;2022-07-23T04:07:58;18.90;;;14.25;;
51806;SDS011;37865;51.304;9.536;2022-07-23T04:10:24;23.08;;;14.25;;
51806;SDS011;37865;51.304;9.536;2022-07-23T04:12:49;24.77;;;14.30;;
51806;SDS011;37865;51.304;9.536;2022-07-23T04:15:14;16.98;;;13.00;;
51806;SDS011;37865;51.304;9.536;2022-07-23T04:17:40;20.33;;;14.57;;
51806;SDS011;37865;51.304;9.536;2022-07-23T04:20:05;18.00;;;13.40;;
51806;SDS011;37865;51.304;9.536;2022-07-23T04:22:31;26.45;;;13.95;;
51806;SDS011;37865;51.304;9.536;2022-07-23T04:24:56;16.75;;;13.38;;
51806;SDS011;37865;51.304;9.536;2022-07-23T04:27:22;19.23;;;14.10;;
51806;SDS011;37865;51.304;9.536;2022-07-23T04:29:47;22.95;;;13.10;;
51806;SDS011;37865;51.304;9.536;2022-07-23T04:32:12;16.38;;;13.02;;
51806;SDS011;37865;51.304;9.536;2022-07-23T04:34:38;23.05;;;13.25;;
51806;SDS011;37865;51.304;9.536;2022-07-23T04:37:03;17.92;;;13.00;;
51806;SDS011;37865;51.304;9.536;2022-07-23T04:39:28;19.48;;;11.82;;
51806;SDS011;37865;51.304;9.536;2022-07-23T04:41:54;18.60;;;12.40;;
51806;SDS011;37865;51.304;9.536;2022-07-23T04:44:19;21.60;;;14.48;;
51806;SDS011;37865;51.304;9.536;2022-07-23T04:46:44;24.50;;;13.75;;
51806;SDS011;37865;51.304;9.536;2022-07-23T04:49:10;16.13;;;13.20;;
51806;SDS011;37865;51.304;9.536;2022-07-23T04:51:35;18.20;;;13.48;;
51806;SDS011;37865;51.304;9.536;2022-07-23T04:54:00;18.73;;;13.68;;
51806;SDS011;37865;51.304;9.536;2022-07-23T04:56:26;23.55;;;14.02;;
51806;SDS011;37865;51.304;9.536;2022-07-23T04:58:51;23.15;;;14.77;;
51806;SDS011;37865;51.304;9.536;2022-07-23T05:01:16;21.13;;;13.20;;
51806;SDS011;37865;51.304;9.536;2022-07-23T05:03:42;19.33;;;14.35;;
51806;SDS011;37865;51.304;9.536;2022-07-23T05:06:07;24.65;;;13.57;;
51806;SDS011;37865;51.304;9.536;2022-07-23T05:08:33;18.55;;;13.32;;
51806;SDS011;37865;51.304;9.536;2022-07-23T05:10:58;17.70;;;13.57;;
51806;SDS011;37865;51.304;9.536;2022-07-23T05:13:23;18.45;;;13.00;;
51806;SDS011;37865;51.304;9.536;2022-07-23T05:15:49;19.02;;;12.77;;
51806;SDS011;37865;51.304;9.536;2022-07-23T05:18:14;20.70;;;13.45;;
51806;SDS011;37865;51.304;9.536;2022-07-23T05:20:40;15.57;;;11.82;;
51806;SDS011;37865;51.304;9.536;2022-07-23T05:23:05;24.00;;;13.90;;
51806;SDS011;37865;51.304;9.536;2022-07-23T05:25:31;23.80;;;14.90;;
51806;SDS011;37865;51.304;9.536;2022-07-23T05:27:57;17.38;;;13.18;;
51806;SDS011;37865;51.304;9.536;2022-07-23T05:30:22;21.13;;;13.57;;
51806;SDS011;37865;51.304;9.536;2022-07-23T05:32:48;19.75;;;12.63;;
51806;SDS011;37865;51.304;9.536;2022-07-23T05:35:13;13.15;;;10.45;;
51806;SDS011;37865;51.304;9.536;2022-07-23T05:37:38;15.00;;;13.20;;
51806;SDS011;37865;51.304;9.536;2022-07-23T05:40:05;18.63;;;11.75;;
51806;SDS011;37865;51.304;9.536;2022-07-23T05:42:36;18.10;;;13.02;;
51806;SDS011;37865;51.304;9.536;2022-07-23T05:45:02;14.75;;;11.13;;
51806;SDS011;37865;51.304;9.536;2022-07-23T05:47:28;16.13;;;11.25;;
51806;SDS011;37865;51.304;9.536;2022-07-23T05:50:03;14.23;;;10.70;;
51806;SDS011;37865;51.304;9.536;2022-07-23T05:52:29;24.67;;;18.30;;
51806;SDS011;37865;51.304;9.536;2022-07-23T05:54:54;27.45;;;15.75;;
51806;SDS011;37865;51.304;9.536;2022-07-23T05:57:19;16.90;;;12.07;;
51806;SDS011;37865;51.304;9.536;2022-07-23T05:59:44;20.27;;;12.52;;
51806;SDS011;37865;51.304;9.536;2022-07-23T06:02:10;18.60;;;13.15;;
51806;SDS011;37865;51.304;9.536;2022-07-23T06:04:35;21.13;;;13.60;;
51806;SDS011;37865;51.304;9.536;2022-07-23T06:07:00;12.23;;;10.73;;
51806;SDS011;37865;51.304;9.536;2022-07-23T06:09:26;17.90;;;12.00;;
51806;SDS011;37865;51.304;9.536;2022-07-23T06:11:51;13.93;;;11.10;;
51806;SDS011;37865;51.304;9.536;2022-07-23T06:14:17;19.15;;;11.13;;
51806;SDS011;37865;51.304;9.536;2022-07-23T06:16:42;15.57;;;12.30;;
51806;SDS011;37865;51.304;9.536;2022-07-23T06:19:07;16.50;;;12.25;;
51806;SDS011;37865;51.304;9.536;2022-07-23T06:21:33;18.25;;;10.85;;
51806;SDS011;37865;51.304;9.536;2022-07-23T06:23:58;14.30;;;10.30;;
51806;SDS011;37865;51.304;9.536;2022-07-23T06:26:23;16.38;;;9.85;;
51806;SDS011;37865;51.304;9.536;2022-07-23T06:28:49;23.17;;;11.90;;
51806;SDS011;37865;51.304;9.536;2022-07-23T06:31:14;17.88;;;10.85;;
51806;SDS011;37865;51.304;9.536;2022-07-23T06:33:39;18.90;;;12.38;;
51806;SDS011;37865;51.304;9.536;2022-07-23T06:36:05;14.40;;;10.88;;
51806;SDS011;37865;51.304;9.536;2022-07-23T06:38:30;13.55;;;9.52;;
51806;SDS011;37865;51.304;9.536;2022-07-23T06:40:55;14.88;;;11.05;;
51806;SDS011;37865;51.304;9.536;2022-07-23T06:43:21;11.50;;;10.05;;
51806;SDS011;37865;51.304;9.536;2022-07-23T06:45:46;15.88;;;10.00;;
51806;SDS011;37865;51.304;9.536;2022-07-23T06:48:12;14.52;;;8.98;;
51806;SDS011;37865;51.304;9.536;2022-07-23T06:50:37;19.20;;;10.38;;
51806;SDS011;37865;51.304;9.536;2022-07-23T06:53:02;13.27;;;8.68;;
51806;SDS011;37865;51.304;9.536;2022-07-23T06:55:28;21.70;;;10.00;;
51806;SDS011;37865;51.304;9.536;2022-07-23T06:57:53;14.77;;;9.80;;
51806;SDS011;37865;51.304;9.536;2022-07-23T07:00:18;14.18;;;8.85;;
51806;SDS011;37865;51.304;9.536;2022-07-23T07:02:44;11.88;;;9.38;;
51806;SDS011;37865;51.304;9.536;2022-07-23T07:05:09;17.45;;;11.80;;
51806;SDS011;37865;51.304;9.536;2022-07-23T07:07:34;16.45;;;9.57;;
51806;SDS011;37865;51.304;9.536;2022-07-23T07:10:00;11.85;;;9.70;;
51806;SDS011;37865;51.304;9.536;2022-07-23T07:12:26;11.10;;;8.00;;
51806;SDS011;37865;51.304;9.536;2022-07-23T07:14:52;10.88;;;7.70;;
51806;SDS011;37865;51.304;9.536;2022-07-23T07:17:18;11.50;;;7.53;;
51806;SDS011;37865;51.304;9.536;2022-07-23T07:19:43;15.38;;;7.53;;
51806;SDS011;37865;51.304;9.536;2022-07-23T07:22:09;10.30;;;7.40;;
51806;SDS011;37865;51.304;9.536;2022-07-23T07:24:34;7.20;;;6.50;;
51806;SDS011;37865;51.304;9.536;2022-07-23T07:27:00;12.07;;;7.75;;
51806;SDS011;37865;51.304;9.536;2022-07-23T07:29:25;9.27;;;7.85;;
51806;SDS011;37865;51.304;9.536;2022-07-23T07:31:51;11.63;;;7.28;;
51806;SDS011;37865;51.304;9.536;2022-07-23T07:34:16;11.95;;;8.00;;
51806;SDS011;37865;51.304;9.536;2022-07-23T07:36:41;12.25;;;7.85;;
51806;SDS011;37865;51.304;9.536;2022-07-23T07:39:08;12.60;;;8.45;;
51806;SDS011;37865;51.304;9.536;2022-07-23T07:41:35;8.32;;;7.22;;
51806;SDS011;37865;51.304;9.536;2022-07-23T07:44:01;12.02;;;7.72;;
51806;SDS011;37865;51.304;9.536;2022-07-23T07:46:26;10.70;;;7.55;;
51806;SDS011;37865;51.304;9.536;2022-07-23T07:48:52;8.13;;;5.22;;
51806;SDS011;37865;51.304;9.536;2022-07-23T07:51:18;9.93;;;6.93;;
51806;SDS011;37865;51.304;9.536;2022-07-23T07:53:43;8.98;;;6.57;;
51806;SDS011;37865;51.304;9.536;2022-07-23T07:56:08;7.85;;;6.07;;
51806;SDS011;37865;51.304;9.536;2022-07-23T07:58:34;6.50;;;4.72;;
51806;SDS011;37865;51.304;9.536;2022-07-23T08:00:59;8.30;;;3.92;;
51806;SDS011;37865;51.304;9.536;2022-07-23T08:03:25;6.72;;;4.07;;
51806;SDS011;37865;51.304;9.536;2022-07-23T08:05:51;6.80;;;4.53;;
51806;SDS011;37865;51.304;9.536;2022-07-23T08:08:16;4.00;;;2.85;;
51806;SDS011;37865;51.304;9.536;2022-07-23T08:10:42;4.43;;;2.58;;
51806;SDS011;37865;51.304;9.536;2022-07-23T08:13:08;3.97;;;2.78;;
51806;SDS011;37865;51.304;9.536;2022-07-23T08:15:39;4.40;;;2.80;;
51806;SDS011;37865;51.304;9.536;2022-07-23T08:18:05;13.50;;;4.05;;
51806;SDS011;37865;51.304;9.536;2022-07-23T08:20:30;4.78;;;3.30;;
51806;SDS011;37865;51.304;9.536;2022-07-23T08:25:29;12.13;;;3.50;;
51806;SDS011;37865;51.304;9.536;2022-07-23T08:27:57;6.70;;;5.00;;
51806;SDS011;37865;51.304;9.536;2022-07-23T08:30:23;8.95;;;2.78;;
51806;SDS011;37865;51.304;9.536;2022-07-23T08:32:56;5.93;;;3.55;;
51806;SDS011;37865;51.304;9.536;2022-07-23T08:35:39;5.63;;;3.83;;
51806;SDS011;37865;51.304;9.536;2022-07-23T08:38:10;4.85;;;3.33;;
51806;SDS011;37865;51.304;9.536;2022-07-23T08:40:38;6.55;;;4.47;;
